createdAt,value
2023-03-15T00:00:04.466Z,2.10
2023-03-15T00:05:07.630Z,1.50
2023-03-15T00:10:10.989Z,1.60
2023-03-15T00:15:16.478Z,1.53
2023-03-15T00:20:19.937Z,1.90
2023-03-15T00:25:22.723Z,2.07
2023-03-15T00:30:25.342Z,2.10
2023-03-15T00:35:27.779Z,1.90
2023-03-15T00:40:30.573Z,1.90
2023-03-15T00:45:33.646Z,1.87
2023-03-15T00:50:36.018Z,2.40
2023-03-15T00:55:38.489Z,1.57
2023-03-15T01:00:41.541Z,1.80
2023-03-15T01:05:45.252Z,1.90
2023-03-15T01:10:47.669Z,1.90
2023-03-15T01:15:50.124Z,1.87
2023-03-15T01:20:53.003Z,2.13
2023-03-15T01:25:55.389Z,1.80
2023-03-15T01:30:59.838Z,1.77
2023-03-15T01:36:07.519Z,1.53
2023-03-15T01:41:15.831Z,1.30
2023-03-15T01:46:26.550Z,1.30
2023-03-15T01:51:37.646Z,1.40
2023-03-15T01:56:45.692Z,1.60
2023-03-15T02:01:49.395Z,1.27
2023-03-15T02:06:59.179Z,1.33
2023-03-15T02:12:06.035Z,1.13
2023-03-15T02:17:08.932Z,1.20
2023-03-15T02:22:26.207Z,0.87
2023-03-15T02:27:34.636Z,1.50
2023-03-15T02:32:37.194Z,0.87
2023-03-15T02:37:39.882Z,1.03
2023-03-15T02:42:42.620Z,0.80
2023-03-15T02:47:46.761Z,0.93
2023-03-15T02:52:49.192Z,0.80
2023-03-15T02:57:51.832Z,0.80
2023-03-15T03:02:56.078Z,1.00
2023-03-15T03:07:58.790Z,0.83
2023-03-15T03:13:01.919Z,0.70
2023-03-15T03:18:08.960Z,0.87
2023-03-15T03:23:11.445Z,1.20
2023-03-15T03:28:14.061Z,1.10
2023-03-15T03:33:16.844Z,1.17
2023-03-15T03:38:22.385Z,1.00
2023-03-15T03:43:30.821Z,1.07
2023-03-15T03:48:33.849Z,0.90
2023-03-15T03:53:36.268Z,0.90
2023-03-15T03:58:40.167Z,1.40
2023-03-15T04:03:56.844Z,1.10
2023-03-15T04:09:02.764Z,1.50
2023-03-15T04:14:13.383Z,1.40
2023-03-15T04:19:17.562Z,1.20
2023-03-15T04:24:20.660Z,1.30
2023-03-15T04:29:44.231Z,1.13
2023-03-15T04:35:05.740Z,1.40
2023-03-15T04:40:42.871Z,1.20
2023-03-15T04:46:14.492Z,1.50
2023-03-15T04:51:37.390Z,1.80
2023-03-15T04:56:52.961Z,1.43
2023-03-15T05:02:20.685Z,1.90
2023-03-15T05:07:58.565Z,1.63
2023-03-15T05:13:24.385Z,1.60
2023-03-15T05:18:54.144Z,1.53
2023-03-15T05:24:28.956Z,1.50
2023-03-15T05:29:43.731Z,1.30
2023-03-15T05:35:15.098Z,1.63
2023-03-15T05:40:36.141Z,1.63
2023-03-15T05:45:50.688Z,1.90
2023-03-15T05:51:28.383Z,1.80
2023-03-15T05:56:42.635Z,1.97
2023-03-15T06:02:05.345Z,1.83
2023-03-15T06:07:16.906Z,1.77
2023-03-15T06:12:20.096Z,1.60
2023-03-15T06:17:23.172Z,1.83
2023-03-15T06:22:25.789Z,1.80
2023-03-15T06:27:32.677Z,1.60
2023-03-15T06:32:35.578Z,1.80
2023-03-15T06:37:38.629Z,1.70
2023-03-15T06:42:41.814Z,1.70
2023-03-15T06:47:47.124Z,1.80
2023-03-15T06:52:51.457Z,1.70
2023-03-15T06:57:54.352Z,1.97
2023-03-15T07:02:56.985Z,1.60
2023-03-15T07:07:59.506Z,1.70
2023-03-15T07:13:01.958Z,1.60
2023-03-15T07:18:04.690Z,1.50
2023-03-15T07:23:07.142Z,1.50
2023-03-15T07:28:09.674Z,1.37
2023-03-15T07:33:12.209Z,2.00
2023-03-15T07:38:14.838Z,1.60
2023-03-15T07:43:17.683Z,1.40
2023-03-15T07:48:23.069Z,1.93
2023-03-15T07:53:25.962Z,2.00
2023-03-15T07:58:28.500Z,1.67
2023-03-15T08:03:31.626Z,1.73
2023-03-15T08:08:34.134Z,1.60
2023-03-15T08:13:36.714Z,1.67
2023-03-15T08:18:39.276Z,1.20
2023-03-15T08:23:41.741Z,1.37
2023-03-15T08:28:44.392Z,1.60
2023-03-15T08:33:47.953Z,1.50
2023-03-15T08:38:51.285Z,1.60
2023-03-15T08:43:54.089Z,1.40
2023-03-15T08:48:57.143Z,1.60
2023-03-15T08:54:04.093Z,1.30
2023-03-15T08:59:06.850Z,1.47
2023-03-15T09:04:09.371Z,1.37
2023-03-15T09:09:11.915Z,1.40
2023-03-15T09:14:14.445Z,1.37
2023-03-15T09:19:16.943Z,1.57
2023-03-15T09:24:19.578Z,1.20
2023-03-15T09:29:22.432Z,1.67
2023-03-15T09:34:27.382Z,1.13
2023-03-15T09:39:33.450Z,1.13
2023-03-15T09:44:54.469Z,1.30
2023-03-15T09:50:06.374Z,1.20
2023-03-15T09:55:18.598Z,1.23
2023-03-15T10:00:30.907Z,1.40
2023-03-15T10:05:49.002Z,1.37
2023-03-15T10:11:08.292Z,0.93
2023-03-15T10:16:26.472Z,0.90
2023-03-15T10:21:42.561Z,1.57
2023-03-15T10:32:17.813Z,1.07
2023-03-15T10:37:23.944Z,0.90
2023-03-15T10:42:33.891Z,1.03
2023-03-15T10:47:50.439Z,0.90
2023-03-15T10:52:58.312Z,0.97
2023-03-15T10:58:19.131Z,1.33
2023-03-15T11:03:26.255Z,1.03
2023-03-15T11:08:43.540Z,0.90
2023-03-15T11:14:01.102Z,0.97
2023-03-15T11:19:12.128Z,0.80
2023-03-15T11:24:25.894Z,0.83
2023-03-15T11:29:37.976Z,1.00
2023-03-15T11:34:40.790Z,1.00
2023-03-15T11:40:05.034Z,0.80
2023-03-15T11:45:29.579Z,0.70
2023-03-15T11:50:59.377Z,0.90
2023-03-15T11:56:23.235Z,0.60
2023-03-15T12:01:27.624Z,0.90
2023-03-15T12:06:38.075Z,0.90
2023-03-15T12:11:42.631Z,0.83
2023-03-15T12:16:47.038Z,0.60
2023-03-15T12:21:58.768Z,0.70
2023-03-15T12:27:06.488Z,0.70
2023-03-15T12:32:13.664Z,1.53
2023-03-15T12:37:18.962Z,0.80
2023-03-15T12:42:33.035Z,1.40
2023-03-15T12:47:51.234Z,0.90
2023-03-15T12:52:59.790Z,1.47
2023-03-15T12:58:04.880Z,0.90
2023-03-15T13:03:19.549Z,1.13
2023-03-15T13:08:25.727Z,1.00
2023-03-15T13:13:48.651Z,1.20
2023-03-15T13:19:14.914Z,1.10
2023-03-15T13:24:34.112Z,1.00
2023-03-15T13:29:37.330Z,1.10
2023-03-15T13:34:40.859Z,1.30
2023-03-15T13:39:55.840Z,1.27
2023-03-15T13:45:11.512Z,0.90
2023-03-15T13:50:16.746Z,1.00
2023-03-15T13:55:34.812Z,1.00
2023-03-15T14:00:38.061Z,1.20
2023-03-15T14:05:52.576Z,1.13
2023-03-15T14:11:18.437Z,1.10
2023-03-15T14:17:03.159Z,1.37
2023-03-15T14:22:19.321Z,1.30
2023-03-15T14:27:26.588Z,1.20
2023-03-15T14:32:33.117Z,1.13
2023-03-15T14:37:43.188Z,1.20
2023-03-15T14:42:46.005Z,1.27
2023-03-15T14:47:59.300Z,1.30
2023-03-15T14:53:02.970Z,1.20
2023-03-15T14:58:14.903Z,1.30
2023-03-15T15:03:38.811Z,1.20
2023-03-15T15:08:45.817Z,0.90
2023-03-15T15:13:48.304Z,1.10
2023-03-15T15:18:50.756Z,0.80
2023-03-15T15:24:00.718Z,1.00
2023-03-15T15:29:03.310Z,0.93
2023-03-15T15:34:05.824Z,0.60
2023-03-15T15:39:37.647Z,1.10
2023-03-15T15:44:40.171Z,0.70
2023-03-15T15:49:42.592Z,0.80
2023-03-15T15:54:46.359Z,0.63
2023-03-15T15:59:49.112Z,1.00
2023-03-15T16:04:51.937Z,0.87
2023-03-15T16:09:58.448Z,0.70
2023-03-15T16:15:00.912Z,0.93
2023-03-15T16:20:07.491Z,1.00
2023-03-15T16:25:16.408Z,1.30
2023-03-15T16:30:33.198Z,0.97
2023-03-15T16:35:36.636Z,1.00
2023-03-15T16:40:43.222Z,1.10
2023-03-15T16:45:46.355Z,1.10
2023-03-15T16:50:48.881Z,1.30
2023-03-15T16:55:51.312Z,1.00
2023-03-15T17:00:54.327Z,1.17
2023-03-15T17:05:57.222Z,1.43
2023-03-15T17:10:59.944Z,1.10
2023-03-15T17:16:02.537Z,0.93
2023-03-15T17:21:05.883Z,2.00
2023-03-15T17:26:14.531Z,1.10
2023-03-15T17:31:24.983Z,1.60
2023-03-15T17:36:33.076Z,1.20
2023-03-15T17:41:39.792Z,1.50
2023-03-15T17:46:43.192Z,1.53
2023-03-15T17:51:45.942Z,1.53
2023-03-15T17:56:48.399Z,1.43
2023-03-15T18:01:51.462Z,1.80
2023-03-15T18:06:55.521Z,1.40
2023-03-15T18:11:58.285Z,1.67
2023-03-15T18:17:00.721Z,1.80
2023-03-15T18:22:03.557Z,1.60
2023-03-15T18:27:06.021Z,1.80
2023-03-15T18:32:09.934Z,1.33
2023-03-15T18:37:12.416Z,1.50
2023-03-15T18:42:15.143Z,1.73
2023-03-15T18:47:17.611Z,1.93
2023-03-15T18:52:20.106Z,2.33
2023-03-15T18:57:22.598Z,3.23
2023-03-15T19:02:25.643Z,1.97
2023-03-15T19:07:28.381Z,1.90
2023-03-15T19:12:30.898Z,2.00
2023-03-15T19:17:33.608Z,2.30
2023-03-15T19:22:36.154Z,2.17
2023-03-15T19:27:38.794Z,2.10
2023-03-15T19:32:42.807Z,1.80
2023-03-15T19:37:45.695Z,1.80
2023-03-15T19:42:51.635Z,2.00
2023-03-15T19:47:54.815Z,2.33
2023-03-15T19:52:58.512Z,2.23
2023-03-15T19:58:00.989Z,2.70
2023-03-15T20:03:03.478Z,2.40
2023-03-15T20:08:06.193Z,2.30
2023-03-15T20:13:09.997Z,2.33
2023-03-15T20:18:14.934Z,2.70
2023-03-15T20:23:18.692Z,2.70
2023-03-15T20:28:21.200Z,2.23
2023-03-15T20:33:23.875Z,1.90
2023-03-15T20:38:26.668Z,2.30
2023-03-15T20:43:29.441Z,2.40
2023-03-15T20:48:35.212Z,2.47
2023-03-15T20:53:38.333Z,2.50
2023-03-15T20:58:41.549Z,2.40
2023-03-15T21:03:45.525Z,2.83
2023-03-15T21:08:48.152Z,3.00
2023-03-15T21:13:51.040Z,2.43
2023-03-15T21:18:54.966Z,2.97
2023-03-15T21:23:57.642Z,2.50
2023-03-15T21:29:00.190Z,2.90
2023-03-15T21:34:02.766Z,3.27
2023-03-15T21:39:07.577Z,2.90
2023-03-15T21:44:10.598Z,2.90
2023-03-15T21:49:13.058Z,3.10
2023-03-15T21:54:15.595Z,2.90
2023-03-15T21:59:18.573Z,2.93
2023-03-15T22:04:21.458Z,3.20
2023-03-15T22:09:24.308Z,3.00
2023-03-15T22:14:27.198Z,2.93
2023-03-15T22:19:29.651Z,4.10
2023-03-15T22:24:34.072Z,3.17
2023-03-15T22:29:39.080Z,3.17
2023-03-15T22:34:41.742Z,3.40
2023-03-15T22:39:44.230Z,3.10
2023-03-15T22:44:46.601Z,3.03
2023-03-15T22:49:49.269Z,3.13
2023-03-15T22:54:51.796Z,3.33
2023-03-15T22:59:54.575Z,3.20
2023-03-15T23:04:57.245Z,2.80
2023-03-15T23:09:59.815Z,3.47
2023-03-15T23:15:04.117Z,3.17
2023-03-15T23:20:07.762Z,3.73
2023-03-15T23:25:11.396Z,3.50
2023-03-15T23:30:15.277Z,3.57
2023-03-15T23:35:18.009Z,3.30
2023-03-15T23:40:21.324Z,4.03
2023-03-15T23:45:23.978Z,3.83
2023-03-15T23:50:27.186Z,3.93
2023-03-15T23:55:31.193Z,10.07
